Zuidhorn, Netherlands
Current Conditions -  °F | °C
As of 10:25 PM on Friday 19 Dec 2014 (Local Time) from EHGG Reporting Station
Scattered Clouds Scattered Clouds  
Wind Chill: 37°   Ceiling: Unl
Heat Index: 45°   Visibility: 6mi
Dew Point: 36°   Wind: 17mph
Humidity: 71%   Direction: 260°W
Pressure: 29.88"   Gusts: NA
Location:  53.25°N, 6.4°E
Report Text: EHGG 192125Z AUTO 26015KT 230V300 9999 SCT049 07/02 Q1012 TEMPO27017G27KT -SHRA SCT025CB
Loading
Personal Weather Stations






























Interactive Weather Map New forecast layout! Learn more

10-Day Weather Forecast

Advertisements
Track Severe Weather on mobile